createdAt,value
2018-09-05T00:00:06.496Z,15.90
2018-09-05T00:02:34.158Z,12.40
2018-09-05T00:05:01.836Z,13.63
2018-09-05T00:07:29.607Z,14.03
2018-09-05T00:09:57.125Z,15.37
2018-09-05T00:12:24.711Z,10.03
2018-09-05T00:14:52.387Z,9.27
2018-09-05T00:17:20.066Z,10.97
2018-09-05T00:19:47.731Z,12.33
2018-09-05T00:22:15.502Z,11.97
2018-09-05T00:24:43.306Z,12.47
2018-09-05T00:27:10.969Z,14.03
2018-09-05T00:29:38.680Z,15.90
2018-09-05T00:32:06.363Z,14.40
2018-09-05T00:34:34.063Z,15.47
2018-09-05T00:37:01.607Z,11.70
2018-09-05T00:39:29.302Z,13.50
2018-09-05T00:41:56.851Z,12.27
2018-09-05T00:44:24.577Z,13.23
2018-09-05T00:46:52.188Z,13.87
2018-09-05T00:49:19.906Z,12.47
2018-09-05T00:51:47.545Z,12.10
2018-09-05T00:54:15.231Z,14.77
2018-09-05T00:56:42.977Z,13.83
2018-09-05T00:59:10.641Z,14.37
2018-09-05T01:01:38.277Z,13.30
2018-09-05T01:04:05.866Z,15.67
2018-09-05T01:06:33.717Z,17.13
2018-09-05T01:09:01.362Z,16.63
2018-09-05T01:11:29.051Z,16.33
2018-09-05T01:13:56.689Z,13.57
2018-09-05T01:16:24.427Z,14.20
2018-09-05T01:18:52.052Z,15.13
2018-09-05T01:21:19.786Z,13.37
2018-09-05T01:23:47.456Z,14.73
2018-09-05T01:26:15.101Z,12.73
2018-09-05T01:28:42.622Z,14.20
2018-09-05T01:31:10.321Z,12.67
2018-09-05T01:33:37.961Z,12.83
2018-09-05T01:36:11.675Z,12.47
2018-09-05T01:38:40.329Z,11.77
2018-09-05T01:41:08.021Z,12.87
2018-09-05T01:43:35.733Z,14.10
2018-09-05T01:46:03.447Z,11.97
2018-09-05T01:48:31.144Z,11.83
2018-09-05T01:50:58.831Z,13.37
2018-09-05T01:53:26.603Z,15.70
2018-09-05T01:55:54.280Z,16.73
2018-09-05T01:58:21.857Z,15.27
2018-09-05T02:00:49.542Z,13.67
2018-09-05T02:03:17.212Z,14.83
2018-09-05T02:05:44.888Z,13.00
2018-09-05T02:08:12.596Z,10.97
2018-09-05T02:10:40.234Z,13.67
2018-09-05T02:13:07.942Z,14.73
2018-09-05T02:15:35.471Z,15.90
2018-09-05T02:18:03.231Z,14.13
2018-09-05T02:20:30.858Z,15.23
2018-09-05T02:22:58.486Z,15.10
2018-09-05T02:25:26.229Z,15.70
2018-09-05T02:27:53.942Z,14.03
2018-09-05T02:30:21.551Z,13.77
2018-09-05T02:32:49.178Z,13.43
2018-09-05T02:35:16.887Z,16.60
2018-09-05T02:37:44.632Z,13.60
2018-09-05T02:40:12.253Z,15.80
2018-09-05T02:42:39.892Z,14.90
2018-09-05T02:45:07.658Z,15.60
2018-09-05T02:47:35.562Z,15.80
2018-09-05T02:50:03.427Z,14.47
2018-09-05T02:52:31.428Z,14.83
2018-09-05T02:54:59.169Z,15.53
2018-09-05T02:57:26.821Z,15.57
2018-09-05T02:59:54.512Z,12.63
2018-09-05T03:02:22.207Z,13.23
2018-09-05T03:04:49.954Z,13.80
2018-09-05T03:07:17.614Z,14.13
2018-09-05T03:09:45.290Z,15.97
2018-09-05T03:12:16.602Z,15.40
2018-09-05T03:14:44.231Z,15.67
2018-09-05T03:17:12.011Z,13.33
2018-09-05T03:19:39.689Z,15.70
2018-09-05T03:22:07.380Z,12.07
2018-09-05T03:24:35.044Z,13.43
2018-09-05T03:27:02.643Z,14.00
2018-09-05T03:29:30.280Z,12.07
2018-09-05T03:31:58.024Z,14.03
2018-09-05T03:34:25.657Z,13.63
2018-09-05T03:36:53.391Z,11.50
2018-09-05T03:39:21.037Z,13.40
2018-09-05T03:41:48.611Z,11.90
2018-09-05T03:44:16.268Z,10.33
2018-09-05T03:46:43.949Z,12.07
2018-09-05T03:49:11.622Z,13.80
2018-09-05T03:51:39.174Z,12.93
2018-09-05T03:54:06.844Z,12.33
2018-09-05T03:56:34.497Z,12.97
2018-09-05T03:59:02.187Z,11.50
2018-09-05T04:01:29.883Z,13.07
2018-09-05T04:03:57.512Z,13.30
2018-09-05T04:06:25.192Z,12.67
2018-09-05T04:08:52.975Z,15.43
2018-09-05T04:11:20.638Z,17.03
2018-09-05T04:13:48.893Z,13.40
2018-09-05T04:16:16.568Z,13.97
2018-09-05T04:18:44.123Z,15.17
2018-09-05T04:21:11.779Z,15.60
2018-09-05T04:23:47.925Z,15.83
2018-09-05T04:26:16.824Z,21.37
2018-09-05T04:28:44.545Z,14.53
2018-09-05T04:31:13.484Z,16.07
2018-09-05T04:33:41.448Z,16.37
2018-09-05T04:36:11.194Z,13.13
2018-09-05T04:38:39.054Z,14.37
2018-09-05T04:41:06.802Z,14.10
2018-09-05T04:43:34.367Z,15.10
2018-09-05T04:46:02.084Z,12.07
2018-09-05T04:48:29.659Z,12.97
2018-09-05T04:50:57.402Z,12.13
2018-09-05T04:53:25.104Z,15.87
2018-09-05T04:55:52.854Z,15.17
2018-09-05T04:58:21.104Z,14.03
2018-09-05T05:00:48.785Z,13.90
2018-09-05T05:03:16.307Z,14.07
2018-09-05T05:05:43.984Z,14.13
2018-09-05T05:08:11.580Z,13.03
2018-09-05T05:10:39.285Z,12.17
2018-09-05T05:13:06.944Z,13.53
2018-09-05T05:15:34.698Z,14.77
2018-09-05T05:18:02.258Z,17.33
2018-09-05T05:20:29.915Z,16.17
2018-09-05T05:22:57.752Z,15.60
2018-09-05T05:25:25.424Z,15.30
2018-09-05T05:27:53.244Z,12.70
2018-09-05T05:30:20.770Z,11.47
2018-09-05T05:32:48.506Z,14.93
2018-09-05T05:35:16.167Z,14.53
2018-09-05T05:37:43.918Z,12.77
2018-09-05T05:40:11.580Z,11.63
2018-09-05T05:42:39.246Z,11.13
2018-09-05T05:45:06.968Z,10.73
2018-09-05T05:47:34.980Z,9.63
2018-09-05T05:50:03.299Z,9.80
2018-09-05T05:52:31.637Z,11.30
2018-09-05T05:54:59.530Z,10.60
2018-09-05T05:57:27.446Z,10.20
2018-09-05T05:59:55.145Z,11.90
2018-09-05T06:02:22.824Z,12.90
2018-09-05T06:04:50.554Z,12.33
2018-09-05T06:07:18.235Z,11.83
2018-09-05T06:09:45.799Z,12.50
2018-09-05T06:12:13.581Z,10.90
2018-09-05T06:14:41.216Z,14.13
2018-09-05T06:17:08.914Z,12.40
2018-09-05T06:19:36.593Z,10.90
2018-09-05T06:22:04.334Z,9.87
2018-09-05T06:24:32.633Z,9.63
2018-09-05T06:27:00.295Z,10.37
2018-09-05T06:29:28.065Z,11.70
2018-09-05T06:31:55.749Z,11.77
2018-09-05T06:34:23.310Z,8.37
2018-09-05T06:36:50.879Z,10.70
2018-09-05T06:39:18.601Z,9.47
2018-09-05T06:41:46.319Z,10.57
2018-09-05T06:44:13.958Z,9.60
2018-09-05T06:46:41.679Z,10.83
2018-09-05T06:49:09.355Z,9.67
2018-09-05T06:51:37.059Z,9.78
2018-09-05T06:54:04.780Z,9.50
2018-09-05T06:56:32.488Z,10.20
2018-09-05T06:59:00.209Z,10.17
2018-09-05T07:01:27.909Z,13.67
2018-09-05T07:03:55.643Z,12.60
2018-09-05T07:06:23.382Z,11.63
2018-09-05T07:08:51.004Z,15.30
2018-09-05T07:11:18.820Z,15.23
2018-09-05T07:13:46.493Z,15.20
2018-09-05T07:16:14.222Z,16.13
2018-09-05T07:18:41.970Z,15.17
2018-09-05T07:21:09.647Z,13.17
2018-09-05T07:23:37.398Z,16.30
2018-09-05T07:26:05.798Z,10.73
2018-09-05T07:28:33.384Z,12.70
2018-09-05T07:31:01.177Z,14.33
2018-09-05T07:33:28.744Z,15.27
2018-09-05T07:35:56.435Z,18.67
2018-09-05T07:38:24.126Z,22.57
2018-09-05T07:40:52.103Z,34.73
2018-09-05T07:43:19.640Z,26.87
2018-09-05T07:45:47.324Z,24.03
2018-09-05T07:48:15.094Z,25.70
2018-09-05T07:50:42.825Z,24.07
2018-09-05T07:53:10.500Z,24.17
2018-09-05T07:55:38.220Z,22.30
2018-09-05T07:58:05.946Z,22.70
2018-09-05T08:00:33.753Z,25.20
2018-09-05T08:03:01.352Z,20.80
2018-09-05T08:05:29.000Z,20.07
2018-09-05T08:07:56.710Z,19.77
2018-09-05T08:10:24.443Z,19.13
2018-09-05T08:12:52.118Z,18.70
2018-09-05T08:15:19.864Z,16.23
2018-09-05T08:17:47.463Z,15.07
2018-09-05T08:20:15.003Z,15.20
2018-09-05T08:22:42.760Z,14.60
2018-09-05T08:25:10.481Z,15.63
2018-09-05T08:27:38.203Z,16.60
2018-09-05T08:30:05.983Z,16.80
2018-09-05T08:32:33.685Z,16.27
2018-09-05T08:35:01.587Z,15.13
2018-09-05T08:37:29.431Z,14.27
2018-09-05T08:39:56.828Z,13.50
2018-09-05T08:42:24.546Z,16.43
2018-09-05T08:44:52.344Z,13.40
2018-09-05T08:47:19.948Z,13.23
2018-09-05T08:49:47.635Z,12.63
2018-09-05T08:52:15.359Z,11.40
2018-09-05T08:54:42.900Z,13.17
2018-09-05T08:57:10.587Z,12.67
2018-09-05T08:59:38.244Z,12.03
2018-09-05T09:02:05.966Z,11.77
2018-09-05T09:04:33.732Z,10.20
2018-09-05T09:07:01.420Z,11.43
2018-09-05T09:09:29.106Z,11.20
2018-09-05T09:11:56.759Z,10.40
2018-09-05T09:14:24.311Z,10.30
2018-09-05T09:16:52.847Z,10.17
2018-09-05T09:19:20.536Z,14.23
2018-09-05T09:21:48.869Z,12.70
2018-09-05T09:24:16.658Z,10.73
2018-09-05T09:26:44.442Z,9.93
2018-09-05T09:29:12.129Z,10.17
2018-09-05T09:31:39.715Z,8.73
2018-09-05T09:34:07.478Z,9.00
2018-09-05T09:36:35.155Z,9.30
2018-09-05T09:39:03.071Z,9.33
2018-09-05T09:41:30.724Z,9.20
2018-09-05T09:43:58.380Z,9.03
2018-09-05T09:46:26.072Z,8.77
2018-09-05T09:48:53.739Z,8.23
2018-09-05T09:51:22.176Z,9.93
2018-09-05T09:53:50.471Z,8.77
2018-09-05T09:56:18.187Z,8.20
2018-09-05T09:58:45.915Z,7.33
2018-09-05T10:01:19.055Z,7.30
2018-09-05T10:03:52.337Z,7.20
2018-09-05T10:06:25.356Z,7.27
2018-09-05T10:08:58.707Z,6.95
2018-09-05T10:11:31.765Z,6.90
2018-09-05T10:14:04.980Z,6.87
2018-09-05T10:16:38.735Z,6.03
2018-09-05T10:19:07.664Z,6.30
2018-09-05T10:21:35.320Z,6.05
2018-09-05T10:24:03.037Z,6.50
2018-09-05T10:26:30.581Z,5.67
2018-09-05T10:28:58.282Z,5.58
2018-09-05T10:31:26.003Z,6.42
2018-09-05T10:33:53.748Z,5.85
2018-09-05T10:36:21.463Z,6.72
2018-09-05T10:38:49.075Z,6.20
2018-09-05T10:41:16.737Z,5.78
2018-09-05T10:43:44.391Z,6.22
2018-09-05T10:46:12.163Z,5.72
2018-09-05T10:48:39.721Z,5.70
2018-09-05T10:51:07.392Z,6.20
2018-09-05T10:53:35.071Z,6.37
2018-09-05T10:56:02.682Z,6.03
2018-09-05T10:58:30.313Z,6.90
2018-09-05T11:00:58.010Z,6.85
2018-09-05T11:03:25.651Z,6.58
2018-09-05T11:05:53.372Z,6.05
2018-09-05T11:08:21.042Z,6.28
2018-09-05T11:10:48.784Z,5.53
2018-09-05T11:13:16.412Z,6.03
2018-09-05T11:15:44.056Z,6.03
2018-09-05T11:18:11.780Z,5.70
2018-09-05T11:20:39.555Z,6.70
2018-09-05T11:23:07.242Z,6.87
2018-09-05T11:25:34.930Z,7.12
2018-09-05T11:28:02.571Z,8.63
2018-09-05T11:30:30.246Z,6.60
2018-09-05T11:32:58.005Z,6.90
2018-09-05T11:35:25.687Z,6.42
2018-09-05T11:37:53.344Z,6.35
2018-09-05T11:40:21.095Z,6.62
2018-09-05T11:42:48.651Z,6.30
2018-09-05T11:45:18.355Z,6.83
2018-09-05T11:47:45.892Z,6.47
2018-09-05T11:50:13.597Z,6.50
2018-09-05T11:52:41.137Z,6.70
2018-09-05T11:55:08.871Z,7.60
2018-09-05T11:57:36.591Z,8.00
2018-09-05T12:00:04.400Z,6.93
2018-09-05T12:02:32.038Z,7.30
2018-09-05T12:04:59.756Z,8.15
2018-09-05T12:07:27.460Z,8.10
2018-09-05T12:09:55.139Z,7.92
2018-09-05T12:12:22.798Z,8.93
2018-09-05T12:14:50.441Z,7.80
2018-09-05T12:17:18.172Z,7.23
2018-09-05T12:19:45.843Z,7.30
2018-09-05T12:22:14.152Z,7.73
2018-09-05T12:24:41.828Z,7.00
2018-09-05T12:27:09.575Z,9.10
2018-09-05T12:29:37.337Z,7.97
2018-09-05T12:32:05.022Z,8.07
2018-09-05T12:34:32.661Z,7.83
2018-09-05T12:37:00.353Z,8.37
2018-09-05T12:39:28.022Z,7.47
2018-09-05T12:41:55.697Z,7.60
2018-09-05T12:44:23.330Z,7.77
2018-09-05T12:46:51.015Z,7.70
2018-09-05T12:49:18.652Z,7.57
2018-09-05T12:51:46.291Z,7.83
2018-09-05T12:54:14.004Z,7.53
2018-09-05T12:56:41.676Z,8.20
2018-09-05T12:59:09.424Z,7.93
2018-09-05T13:01:37.045Z,7.97
2018-09-05T13:04:04.847Z,8.13
2018-09-05T13:06:32.588Z,8.07
2018-09-05T13:09:00.261Z,7.73
2018-09-05T13:11:27.993Z,7.77
2018-09-05T13:13:55.716Z,7.70
2018-09-05T13:16:23.331Z,7.97
2018-09-05T13:18:51.070Z,7.43
2018-09-05T13:21:18.712Z,7.30
2018-09-05T13:23:46.523Z,7.20
2018-09-05T13:26:14.202Z,8.10
2018-09-05T13:28:41.906Z,7.97
2018-09-05T13:31:09.606Z,7.40
2018-09-05T13:33:37.293Z,7.30
2018-09-05T13:36:05.087Z,7.67
2018-09-05T13:38:32.851Z,7.90
2018-09-05T13:41:00.591Z,7.53
2018-09-05T13:43:28.237Z,7.30
2018-09-05T13:45:55.928Z,8.20
2018-09-05T13:48:23.613Z,7.73
2018-09-05T13:50:51.388Z,7.80
2018-09-05T13:53:19.074Z,7.80
2018-09-05T13:55:46.817Z,8.03
2018-09-05T13:58:14.466Z,7.63
2018-09-05T14:00:42.848Z,7.67
2018-09-05T14:03:10.721Z,8.60
2018-09-05T14:05:38.529Z,8.53
2018-09-05T14:08:06.264Z,7.87
2018-09-05T14:10:34.018Z,7.80
2018-09-05T14:13:01.701Z,7.17
2018-09-05T14:15:29.403Z,8.00
2018-09-05T14:17:56.981Z,7.95
2018-09-05T14:20:24.738Z,7.80
2018-09-05T14:22:52.407Z,7.83
2018-09-05T14:25:20.060Z,7.72
2018-09-05T14:27:48.591Z,7.92
2018-09-05T14:30:16.283Z,8.38
2018-09-05T14:32:43.952Z,8.50
2018-09-05T14:35:11.618Z,8.90
2018-09-05T14:37:39.334Z,9.18
2018-09-05T14:40:07.025Z,7.70
2018-09-05T14:42:34.708Z,8.67
2018-09-05T14:45:02.411Z,8.13
2018-09-05T14:47:30.108Z,7.92
2018-09-05T14:49:57.626Z,8.13
2018-09-05T14:52:25.373Z,8.00
2018-09-05T14:54:53.117Z,7.60
2018-09-05T14:57:20.812Z,7.25
2018-09-05T14:59:48.541Z,7.20
2018-09-05T15:02:16.113Z,8.10
2018-09-05T15:04:43.811Z,7.60
2018-09-05T15:07:11.509Z,7.37
2018-09-05T15:09:39.232Z,7.53
2018-09-05T15:12:06.878Z,7.40
2018-09-05T15:14:34.581Z,7.80
2018-09-05T15:17:02.286Z,7.45
2018-09-05T15:19:29.977Z,7.47
2018-09-05T15:21:57.668Z,8.10
2018-09-05T15:24:25.350Z,8.88
2018-09-05T15:26:53.008Z,7.75
2018-09-05T15:29:20.728Z,8.70
2018-09-05T15:31:48.421Z,8.70
2018-09-05T15:34:16.132Z,8.88
2018-09-05T15:36:44.012Z,8.30
2018-09-05T15:39:12.394Z,8.10
2018-09-05T15:41:40.034Z,7.70
2018-09-05T15:44:07.743Z,9.10
2018-09-05T15:46:35.357Z,9.35
2018-09-05T15:49:03.023Z,8.45
2018-09-05T15:51:30.747Z,9.28
2018-09-05T15:53:58.500Z,9.15
2018-09-05T15:56:26.136Z,8.48
2018-09-05T15:58:53.769Z,8.80
2018-09-05T16:01:21.479Z,9.38
2018-09-05T16:03:49.204Z,9.50
2018-09-05T16:06:16.922Z,8.70
2018-09-05T16:08:44.649Z,9.23
2018-09-05T16:11:12.320Z,9.10
2018-09-05T16:13:40.017Z,8.85
2018-09-05T16:16:07.703Z,9.20
2018-09-05T16:18:35.322Z,10.10
2018-09-05T16:21:02.998Z,10.25
2018-09-05T16:23:30.676Z,9.95
2018-09-05T16:25:58.316Z,9.63
2018-09-05T16:28:26.059Z,9.98
2018-09-05T16:30:53.747Z,9.68
2018-09-05T16:33:21.424Z,10.37
2018-09-05T16:35:49.142Z,10.75
2018-09-05T16:38:16.797Z,9.77
2018-09-05T16:40:44.396Z,11.23
2018-09-05T16:43:12.133Z,11.03
2018-09-05T16:45:39.837Z,10.07
2018-09-05T16:48:07.798Z,10.37
2018-09-05T16:50:35.488Z,11.33
2018-09-05T16:53:03.270Z,10.27
2018-09-05T16:55:30.977Z,9.97
2018-09-05T16:57:58.679Z,9.67
2018-09-05T17:00:26.214Z,10.07
2018-09-05T17:02:53.906Z,10.27
2018-09-05T17:05:21.584Z,9.27
2018-09-05T17:07:49.310Z,9.37
2018-09-05T17:10:17.009Z,9.63
2018-09-05T17:12:44.544Z,8.70
2018-09-05T17:15:12.100Z,9.07
2018-09-05T17:17:39.809Z,9.87
2018-09-05T17:20:07.598Z,9.47
2018-09-05T17:22:35.332Z,9.83
2018-09-05T17:25:03.062Z,9.27
2018-09-05T17:27:30.820Z,10.03
2018-09-05T17:29:58.548Z,9.67
2018-09-05T17:32:26.214Z,9.80
2018-09-05T17:34:53.959Z,9.93
2018-09-05T17:37:22.228Z,10.17
2018-09-05T17:39:49.913Z,10.57
2018-09-05T17:42:17.592Z,11.13
2018-09-05T17:44:45.290Z,11.10
2018-09-05T17:47:12.959Z,11.13
2018-09-05T17:49:40.662Z,11.00
2018-09-05T17:52:08.364Z,11.13
2018-09-05T17:54:36.017Z,11.13
2018-09-05T17:57:03.763Z,10.87
2018-09-05T17:59:31.461Z,10.90
2018-09-05T18:01:59.249Z,11.33
2018-09-05T18:04:26.978Z,10.90
2018-09-05T18:06:54.687Z,10.97
2018-09-05T18:09:22.357Z,10.23
2018-09-05T18:11:50.139Z,10.73
2018-09-05T18:14:17.907Z,11.67
2018-09-05T18:16:45.653Z,10.97
2018-09-05T18:19:13.344Z,10.43
2018-09-05T18:21:41.064Z,11.47
2018-09-05T18:24:08.801Z,10.00
2018-09-05T18:26:36.464Z,10.33
2018-09-05T18:29:04.070Z,10.73
2018-09-05T18:31:31.735Z,9.70
2018-09-05T18:33:59.474Z,11.70
2018-09-05T18:36:27.149Z,11.00
2018-09-05T18:38:54.708Z,11.57
2018-09-05T18:41:22.440Z,12.30
2018-09-05T18:43:50.139Z,14.00
2018-09-05T18:46:26.760Z,12.47
2018-09-05T18:48:54.892Z,14.37
2018-09-05T18:51:23.849Z,12.60
2018-09-05T18:53:51.693Z,13.37
2018-09-05T18:56:19.656Z,12.07
2018-09-05T18:58:47.568Z,14.83
2018-09-05T19:01:15.566Z,15.00
2018-09-05T19:03:43.639Z,13.27
2018-09-05T19:06:11.950Z,15.97
2018-09-05T19:08:40.016Z,13.83
2018-09-05T19:11:08.253Z,16.43
2018-09-05T19:13:38.331Z,15.80
2018-09-05T19:16:09.176Z,13.50
2018-09-05T19:18:36.940Z,13.70
2018-09-05T19:21:04.990Z,13.83
2018-09-05T19:23:33.200Z,13.93
2018-09-05T19:26:00.924Z,14.00
2018-09-05T19:28:28.597Z,15.70
2018-09-05T19:30:56.300Z,16.07
2018-09-05T19:33:24.016Z,14.83
2018-09-05T19:35:51.715Z,15.57
2018-09-05T19:38:19.324Z,17.30
2018-09-05T19:40:47.048Z,16.53
2018-09-05T19:43:14.784Z,13.90
2018-09-05T19:45:42.458Z,14.23
2018-09-05T19:48:10.184Z,13.70
2018-09-05T19:50:37.930Z,16.03
2018-09-05T19:53:05.689Z,15.83
2018-09-05T19:55:33.344Z,15.20
2018-09-05T19:58:01.058Z,14.60
2018-09-05T20:00:28.728Z,15.87
2018-09-05T20:02:56.433Z,17.20
2018-09-05T20:05:24.107Z,16.87
2018-09-05T20:07:51.798Z,18.93
2018-09-05T20:10:19.360Z,17.27
2018-09-05T20:12:47.063Z,16.70
2018-09-05T20:15:14.733Z,20.53
2018-09-05T20:17:42.415Z,16.70
2018-09-05T20:20:10.018Z,15.77
2018-09-05T20:22:37.578Z,18.67
2018-09-05T20:25:05.180Z,15.90
2018-09-05T20:27:32.878Z,19.43
2018-09-05T20:30:00.634Z,19.17
2018-09-05T20:32:28.318Z,18.93
2018-09-05T20:34:55.980Z,19.80
2018-09-05T20:37:23.715Z,16.87
2018-09-05T20:39:51.396Z,19.57
2018-09-05T20:42:18.939Z,19.20
2018-09-05T20:44:46.631Z,18.47
2018-09-05T20:47:14.204Z,22.33
2018-09-05T20:49:41.904Z,17.80
2018-09-05T20:52:09.625Z,18.07
2018-09-05T20:54:37.298Z,17.10
2018-09-05T20:57:04.954Z,17.87
2018-09-05T20:59:32.625Z,20.87
2018-09-05T21:02:00.305Z,21.00
2018-09-05T21:04:28.053Z,19.07
2018-09-05T21:06:56.036Z,18.97
2018-09-05T21:09:23.804Z,18.80
2018-09-05T21:11:51.463Z,21.80
2018-09-05T21:14:19.032Z,19.63
2018-09-05T21:16:46.786Z,19.13
2018-09-05T21:19:14.439Z,19.10
2018-09-05T21:21:42.116Z,20.40
2018-09-05T21:24:09.844Z,18.83
2018-09-05T21:26:37.587Z,18.53
2018-09-05T21:29:05.160Z,18.97
2018-09-05T21:31:32.880Z,20.40
2018-09-05T21:34:00.546Z,19.57
2018-09-05T21:36:28.264Z,20.57
2018-09-05T21:38:55.953Z,20.50
2018-09-05T21:41:23.589Z,21.03
2018-09-05T21:43:51.269Z,22.43
2018-09-05T21:46:18.836Z,23.23
2018-09-05T21:48:46.503Z,19.13
2018-09-05T21:51:14.174Z,22.07
2018-09-05T21:53:41.881Z,22.60
2018-09-05T21:56:09.546Z,25.00
2018-09-05T21:58:37.526Z,21.50
2018-09-05T22:01:05.266Z,22.80
2018-09-05T22:03:33.810Z,24.73
2018-09-05T22:06:01.398Z,24.37
2018-09-05T22:08:29.075Z,21.27
2018-09-05T22:11:01.281Z,21.53
2018-09-05T22:13:29.027Z,24.97
2018-09-05T22:15:56.485Z,22.33
2018-09-05T22:18:24.204Z,20.43
2018-09-05T22:20:51.850Z,22.37
2018-09-05T22:23:19.544Z,24.30
2018-09-05T22:25:47.214Z,21.97
2018-09-05T22:28:14.912Z,22.97
2018-09-05T22:30:42.560Z,24.37
2018-09-05T22:33:10.238Z,22.57
2018-09-05T22:35:37.905Z,23.00
2018-09-05T22:38:05.575Z,22.27
2018-09-05T22:41:05.317Z,20.63
2018-09-05T22:43:44.385Z,21.63
2018-09-05T22:46:17.600Z,21.63
2018-09-05T22:48:50.869Z,21.70
2018-09-05T22:51:52.041Z,21.93
2018-09-05T22:54:35.141Z,22.47
2018-09-05T22:59:17.791Z,24.10
2018-09-05T23:03:55.173Z,22.62
2018-09-05T23:07:42.396Z,19.90
2018-09-05T23:10:21.414Z,20.50
2018-09-05T23:14:03.186Z,24.47
2018-09-05T23:16:42.196Z,22.17
2018-09-05T23:19:27.841Z,19.73
2018-09-05T23:21:55.517Z,19.00
2018-09-05T23:24:23.244Z,20.70
2018-09-05T23:26:50.975Z,20.00
2018-09-05T23:29:18.695Z,22.20
2018-09-05T23:31:46.410Z,22.27
2018-09-05T23:34:14.092Z,22.67
2018-09-05T23:36:41.655Z,21.70
2018-09-05T23:39:09.250Z,23.67
2018-09-05T23:41:36.958Z,19.87
2018-09-05T23:44:04.519Z,21.63
2018-09-05T23:46:32.254Z,19.80
2018-09-05T23:48:59.982Z,18.97
2018-09-05T23:51:27.536Z,19.13
2018-09-05T23:53:55.115Z,23.03
2018-09-05T23:56:22.872Z,21.00
2018-09-05T23:58:50.435Z,21.57
